| time (UTC) | temp F | wind direction | speed knots | gust knots | rain 1hr in | rain 24hr in | rain mn in | humidity % | barometer mb |
| 20260906082306 | 77 | 127 | 0.0 | 0.0 | 0.00 | 0.00 | 0.00 | 87 | 1012.7 |
| 20260906081800 | 77 | 113 | 0.9 | 0.9 | 0.00 | 0.00 | 0.00 | 87 | 1012.6 |
| 20260906081255 | 77 | 127 | 0.0 | 0.0 | 0.00 | 0.00 | 0.00 | 87 | 1012.9 |
| 20260906080751 | 77 | 128 | 0.0 | 0.9 | 0.00 | 0.00 | 0.00 | 87 | 1012.8 |
| 20260906080248 | 77 | 122 | 0.0 | 0.0 | 0.00 | 0.00 | 0.00 | 87 | 1012.8 |
| 20260906075747 | 77 | 135 | 0.0 | 0.9 | 0.00 | 0.00 | 0.00 | 87 | 1013.0 |
| 20260906075247 | 77 | 147 | 0.0 | 0.9 | 0.00 | 0.00 | 0.00 | 86 | 1013.0 |
| 20260906074742 | 77 | 75 | 1.7 | 2.6 | 0.00 | 0.00 | 0.00 | 85 | 1012.9 |
| 20260906074242 | 77 | 117 | 0.0 | 0.9 | 0.00 | 0.00 | 0.00 | 84 | 1012.8 |
| 20260906073741 | 77 | 113 | 1.7 | 2.6 | 0.00 | 0.00 | 0.00 | 83 | 1012.8 |
| 20260906073236 | 77 | 109 | 0.9 | 0.9 | 0.00 | 0.00 | 0.00 | 83 | 1012.5 |
| 20260906072732 | 77 | 133 | 0.0 | 0.0 | 0.00 | 0.00 | 0.00 | 82 | 1012.4 |
| 20260906072228 | 78 | 130 | 0.0 | 0.0 | 0.00 | 0.00 | 0.00 | 81 | 1012.4 |
| 20260906071724 | 78 | 101 | 1.7 | 1.7 | 0.00 | 0.00 | 0.00 | 79 | 1012.4 |
| 20260906071223 | 78 | 140 | 0.0 | 0.0 | 0.00 | 0.00 | 0.00 | 78 | 1012.5 |
| 20260906070720 | 79 | 117 | 0.9 | 0.9 | 0.00 | 0.00 | 0.00 | 78 | 1012.5 |
| 20260906070216 | 79 | 126 | 0.9 | 0.9 | 0.00 | 0.00 | 0.00 | 77 | 1012.5 |
| 20260906065715 | 79 | 114 | 0.9 | 1.7 | 0.00 | 0.00 | 0.00 | 77 | 1012.4 |
| 20260906065210 | 79 | 125 | 0.0 | 0.0 | 0.00 | 0.00 | 0.00 | 76 | 1012.2 |
| 20260906064706 | 79 | 135 | 0.9 | 0.9 | 0.00 | 0.00 | 0.00 | 75 | 1012.3 |
| 20260906064201 | 79 | 143 | 0.0 | 0.0 | 0.00 | 0.00 | 0.00 | 75 | 1012.0 |
| 20260906063656 | 79 | 155 | 0.0 | 0.9 | 0.00 | 0.00 | 0.00 | 76 | 1012.0 |
| 20260906063152 | 79 | 139 | 0.0 | 0.0 | 0.00 | 0.00 | 0.00 | 77 | 1012.1 |
| 20260906062648 | 80 | 137 | 0.0 | 0.0 | 0.00 | 0.00 | 0.00 | 77 | 1012.3 |
| 20260906062146 | 80 | 138 | 0.0 | 0.0 | 0.00 | 0.00 | 0.00 | 78 | 1012.2 |
| 20260906061642 | 80 | 139 | 0.0 | 0.0 | 0.00 | 0.00 | 0.00 | 76 | 1012.0 |
| 20260906061142 | 80 | 148 | 0.9 | 0.9 | 0.00 | 0.00 | 0.00 | 77 | 1012.2 |
| 20260906060639 | 81 | 145 | 0.9 | 0.9 | 0.00 | 0.00 | 0.00 | 75 | 1012.3 |
| 20260906060136 | 81 | 132 | 0.0 | 0.0 | 0.00 | 0.00 | 0.00 | 74 | 1012.6 |
| 20260906055631 | 81 | 128 | 0.0 | 0.0 | 0.00 | 0.00 | 0.00 | 73 | 1012.6 |
| 20260906055126 | 81 | 114 | 0.9 | 0.9 | 0.00 | 0.00 | 0.00 | 73 | 1012.6 |
| 20260906054621 | 82 | 122 | 0.0 | 0.0 | 0.00 | 0.00 | 0.00 | 72 | 1012.3 |
| 20260906054117 | 82 | 148 | 0.0 | 0.9 | 0.00 | 0.00 | 0.00 | 72 | 1012.2 |
| 20260906053613 | 82 | 143 | 0.9 | 0.9 | 0.00 | 0.00 | 0.00 | 71 | 1012.5 |
| 20260906053108 | 81 | 127 | 0.9 | 1.7 | 0.00 | 0.00 | 0.00 | 73 | 1012.4 |
| 20260906052604 | 82 | 139 | 0.9 | 0.9 | 0.00 | 0.00 | 0.00 | 78 | 1012.5 |
| 20260906052101 | 81 | 94 | 1.7 | 1.7 | 0.00 | 0.00 | 0.00 | 79 | 1012.2 |
| 20260906051556 | 81 | 135 | 0.0 | 0.0 | 0.00 | 0.00 | 0.00 | 80 | 1012.3 |
| 20260906051051 | 81 | 150 | 3.5 | 5.2 | 0.00 | 0.00 | 0.00 | 81 | 1012.2 |
| 20260906050546 | 80 | 142 | 3.5 | 6.1 | 0.00 | 0.00 | 0.00 | 82 | 1012.0 |
| 20260906050041 | 80 | 137 | 0.0 | 0.0 | 0.00 | 0.00 | 0.00 | 82 | 1012.1 |
| 20260906045539 | 79 | 134 | 0.9 | 0.9 | 0.00 | 0.00 | 0.00 | 82 | 1012.4 |
| 20260906045035 | 79 | 140 | 0.0 | 0.0 | 0.00 | 0.00 | 0.00 | 83 | 1012.5 |
| 20260906044531 | 79 | 139 | 0.0 | 0.0 | 0.00 | 0.00 | 0.00 | 84 | 1012.3 |
| 20260906044026 | 78 | 132 | 0.0 | 0.9 | 0.00 | 0.00 | 0.00 | 86 | 1012.5 |
| 20260906043522 | 78 | 130 | 0.0 | 0.0 | 0.00 | 0.00 | 0.00 | 87 | 1012.1 |
| 20260906043018 | 78 | 130 | 0.0 | 0.0 | 0.00 | 0.00 | 0.00 | 87 | 1012.3 |
| 20260906042517 | 78 | 129 | 0.0 | 0.0 | 0.00 | 0.00 | 0.00 | 88 | 1012.3 |
| 20260906042017 | 78 | 130 | 0.0 | 0.0 | 0.00 | 0.00 | 0.00 | 88 | 1012.4 |
| 20260906041513 | 78 | 130 | 0.0 | 0.0 | 0.00 | 0.00 | 0.00 | 87 | 1012.4 |
| 20260906041013 | 78 | 135 | 0.0 | 0.0 | 0.00 | 0.00 | 0.00 | 87 | 1012.4 |
| 20260906040508 | 78 | 136 | 0.0 | 0.0 | 0.00 | 0.00 | 0.00 | 88 | 1012.6 |
| 20260906040003 | 78 | 137 | 0.0 | 0.0 | 0.00 | 0.00 | 0.00 | 87 | 1012.3 |
| 20260906035458 | 78 | 130 | 0.0 | 0.0 | 0.00 | 0.00 | 0.00 | 87 | 1012.4 |
| 20260906034954 | 79 | 130 | 0.0 | 0.0 | 0.00 | 0.00 | 0.00 | 87 | 1012.3 |
| 20260906034454 | 79 | 131 | 0.0 | 0.0 | 0.00 | 0.00 | 0.00 | 86 | 1012.3 |
| 20260906033949 | 79 | 137 | 0.0 | 0.0 | 0.00 | 0.00 | 0.00 | 86 | 1012.3 |
| 20260906033444 | 79 | 137 | 0.0 | 0.0 | 0.00 | 0.00 | 0.00 | 85 | 1012.3 |
| 20260906032940 | 80 | 137 | 0.0 | 0.0 | 0.00 | 0.00 | 0.00 | 85 | 1012.2 |
| 20260906032437 | 80 | 137 | 0.0 | 0.0 | 0.00 | 0.00 | 0.00 | 85 | 1012.2 |
| 20260906031936 | 80 | 137 | 0.0 | 0.0 | 0.00 | 0.00 | 0.00 | 85 | 1012.3 |
| 20260906031432 | 80 | 134 | 0.0 | 0.0 | 0.00 | 0.00 | 0.00 | 84 | 1012.1 |
| 20260906030927 | 80 | 134 | 0.0 | 0.0 | 0.00 | 0.00 | 0.00 | 84 | 1012.0 |
| 20260906030422 | 80 | 136 | 0.0 | 0.0 | 0.00 | 0.00 | 0.00 | 84 | 1012.1 |
| 20260906025922 | 80 | 136 | 0.0 | 0.0 | 0.00 | 0.00 | 0.00 | 83 | 1012.2 |
| 20260906025416 | 80 | 135 | 0.0 | 0.0 | 0.00 | 0.00 | 0.00 | 82 | 1012.0 |
| 20260906024915 | 80 | 135 | 0.0 | 0.0 | 0.00 | 0.00 | 0.00 | 81 | 1012.0 |
| 20260906024415 | 81 | 135 | 0.0 | 0.0 | 0.00 | 0.00 | 0.00 | 81 | 1012.0 |
| 20260906023910 | 81 | 135 | 0.0 | 0.0 | 0.00 | 0.00 | 0.00 | 80 | 1012.1 |
| 20260906023406 | 81 | 135 | 0.0 | 0.0 | 0.00 | 0.00 | 0.00 | 81 | 1011.8 |
| 20260906022901 | 81 | 131 | 0.0 | 0.0 | 0.00 | 0.00 | 0.00 | 80 | 1012.0 |
| 20260906022401 | 81 | 130 | 0.0 | 0.0 | 0.00 | 0.00 | 0.00 | 80 | 1011.8 |
| 20260906021857 | 81 | 129 | 0.0 | 0.0 | 0.00 | 0.00 | 0.00 | 81 | 1011.6 |
| 20260906021355 | 82 | 128 | 0.0 | 0.0 | 0.00 | 0.00 | 0.00 | 81 | 1011.9 |
| 20260906020851 | 82 | 126 | 0.0 | 0.0 | 0.00 | 0.00 | 0.00 | 80 | 1011.5 |
| 20260906020350 | 82 | 131 | 0.0 | 0.0 | 0.00 | 0.00 | 0.00 | 80 | 1011.4 |
| 20260906015845 | 82 | 131 | 0.0 | 0.0 | 0.00 | 0.00 | 0.00 | 79 | 1011.2 |
| 20260906015345 | 82 | 130 | 0.0 | 0.0 | 0.00 | 0.00 | 0.00 | 79 | 1011.5 |
| 20260906014845 | 82 | 130 | 0.0 | 0.0 | 0.00 | 0.00 | 0.00 | 79 | 1011.2 |
| 20260906014344 | 83 | 133 | 0.0 | 0.0 | 0.00 | 0.00 | 0.00 | 79 | 1011.1 |
| 20260906013841 | 83 | 130 | 0.0 | 0.0 | 0.00 | 0.00 | 0.00 | 77 | 1011.0 |
| 20260906013336 | 83 | 130 | 0.0 | 0.0 | 0.00 | 0.00 | 0.00 | 76 | 1010.8 |
| 20260906012831 | 84 | 133 | 0.0 | 0.0 | 0.00 | 0.00 | 0.00 | 77 | 1010.9 |
| 20260906012327 | 84 | 131 | 0.0 | 0.0 | 0.00 | 0.00 | 0.00 | 76 | 1011.0 |
| 20260906011826 | 84 | 132 | 0.0 | 0.0 | 0.00 | 0.00 | 0.00 | 77 | 1010.9 |
| 20260906011321 | 84 | 131 | 0.0 | 0.0 | 0.00 | 0.00 | 0.00 | 78 | 1010.8 |
| 20260906010817 | 84 | 137 | 0.0 | 0.0 | 0.00 | 0.00 | 0.00 | 76 | 1010.7 |
| 20260906010313 | 84 | 131 | 0.0 | 0.0 | 0.00 | 0.00 | 0.00 | 76 | 1010.9 |
| 20260906005808 | 84 | 134 | 0.0 | 0.0 | 0.00 | 0.00 | 0.00 | 77 | 1010.8 |
| 20260906005307 | 84 | 130 | 0.0 | 0.0 | 0.00 | 0.00 | 0.00 | 77 | 1010.8 |
| 20260906004806 | 84 | 129 | 0.0 | 0.0 | 0.00 | 0.00 | 0.00 | 77 | 1010.7 |
| 20260906004306 | 85 | 137 | 0.0 | 0.0 | 0.00 | 0.00 | 0.00 | 77 | 1010.6 |
| 20260906003802 | 85 | 137 | 0.0 | 0.0 | 0.00 | 0.00 | 0.00 | 78 | 1010.7 |
| 20260906003257 | 85 | 137 | 0.0 | 0.0 | 0.00 | 0.00 | 0.00 | 77 | 1010.5 |
| 20260906002753 | 85 | 136 | 0.0 | 0.0 | 0.00 | 0.00 | 0.00 | 78 | 1010.4 |
| 20260906002252 | 86 | 136 | 0.0 | 0.0 | 0.00 | 0.00 | 0.00 | 77 | 1010.6 |
| 20260906001748 | 86 | 138 | 0.0 | 0.0 | 0.00 | 0.00 | 0.00 | 77 | 1010.6 |
| 20260906001248 | 86 | 132 | 0.0 | 0.0 | 0.00 | 0.00 | 0.00 | 74 | 1010.7 |
| 20260906000743 | 87 | 135 | 0.0 | 0.0 | 0.00 | 0.00 | 0.00 | 73 | 1010.7 |
| 20260906000238 | 88 | 135 | 0.0 | 0.0 | 0.00 | 0.00 | 0.00 | 71 | 1010.8 |
| 20260905235733 | 88 | 136 | 0.0 | 0.0 | 0.00 | 0.00 | 0.00 | 70 | 1010.7 |
| 20260905235232 | 89 | 135 | 0.0 | 0.0 | 0.00 | 0.00 | 0.00 | 68 | 1010.8 |
| 20260905234728 | 89 | 135 | 0.0 | 0.0 | 0.00 | 0.00 | 0.00 | 67 | 1010.6 |
| 20260905234223 | 90 | 131 | 0.0 | 0.0 | 0.00 | 0.00 | 0.00 | 66 | 1010.6 |
| 20260905233719 | 91 | 135 | 0.0 | 0.0 | 0.00 | 0.00 | 0.00 | 64 | 1010.7 |
| 20260905233218 | 92 | 138 | 0.0 | 0.0 | 0.00 | 0.00 | 0.00 | 63 | 1010.7 |
| 20260905232713 | 93 | 137 | 0.0 | 0.0 | 0.00 | 0.00 | 0.00 | 63 | 1010.7 |
| 20260905232208 | 93 | 137 | 0.0 | 0.0 | 0.00 | 0.00 | 0.00 | 62 | 1010.6 |
| 20260905231704 | 93 | 139 | 0.0 | 0.0 | 0.00 | 0.00 | 0.00 | 61 | 1010.6 |
| 20260905231200 | 92 | 140 | 0.0 | 0.0 | 0.00 | 0.00 | 0.00 | 62 | 1010.5 |
| 20260905230655 | 93 | 140 | 0.0 | 0.0 | 0.00 | 0.00 | 0.00 | 63 | 1010.5 |
| 20260905230153 | 93 | 141 | 0.0 | 0.0 | 0.00 | 0.00 | 0.00 | 61 | 1010.5 |
| 20260905225653 | 94 | 142 | 0.0 | 0.0 | 0.00 | 0.00 | 0.00 | 60 | 1010.6 |
| 20260905225148 | 94 | 137 | 0.0 | 0.0 | 0.00 | 0.00 | 0.00 | 60 | 1010.5 |
| 20260905224647 | 95 | 135 | 0.0 | 0.0 | 0.00 | 0.00 | 0.00 | 58 | 1010.5 |
| 20260905224141 | 95 | 138 | 0.0 | 0.0 | 0.00 | 0.00 | 0.00 | 58 | 1010.6 |
| 20260905223638 | 95 | 139 | 0.0 | 0.0 | 0.00 | 0.00 | 0.00 | 57 | 1010.5 |
| 20260905223135 | 95 | 141 | 0.0 | 0.0 | 0.00 | 0.00 | 0.00 | 54 | 1010.5 |
| 20260905222630 | 95 | 130 | 0.0 | 0.0 | 0.00 | 0.00 | 0.00 | 49 | 1010.6 |
| 20260905222125 | 96 | 106 | 0.9 | 0.9 | 0.00 | 0.00 | 0.00 | 49 | 1010.6 |
| 20260905221621 | 96 | 86 | 0.9 | 0.9 | 0.00 | 0.00 | 0.00 | 52 | 1010.5 |
| 20260905221118 | 96 | 140 | 0.0 | 0.9 | 0.00 | 0.00 | 0.00 | 49 | 1010.5 |
| 20260905220613 | 97 | 148 | 0.9 | 0.9 | 0.00 | 0.00 | 0.00 | 50 | 1010.6 |
| 20260905220109 | 97 | 131 | 0.0 | 0.9 | 0.00 | 0.00 | 0.00 | 48 | 1010.8 |
| 20260905215608 | 98 | 141 | 0.0 | 0.0 | 0.00 | 0.00 | 0.00 | 47 | 1010.6 |
| 20260905215104 | 99 | 136 | 0.0 | 0.9 | 0.00 | 0.00 | 0.00 | 45 | 1010.7 |
| 20260905214600 | 100 | 150 | 0.9 | 0.9 | 0.00 | 0.00 | 0.00 | 45 | 1010.6 |
| 20260905214055 | 102 | 139 | 0.0 | 0.0 | 0.00 | 0.00 | 0.00 | 43 | 1010.6 |
| 20260905213550 | 104 | 127 | 0.0 | 0.0 | 0.00 | 0.00 | 0.00 | 42 | 1010.7 |
| 20260905213045 | 105 | 126 | 0.9 | 0.9 | 0.00 | 0.00 | 0.00 | 39 | 1011.0 |
| 20260905212545 | 105 | 131 | 0.0 | 0.0 | 0.00 | 0.00 | 0.00 | 39 | 1010.6 |
| 20260905212044 | 106 | 119 | 1.7 | 1.7 | 0.00 | 0.00 | 0.00 | 38 | 1010.9 |
| 20260905211540 | 106 | 145 | 0.0 | 0.0 | 0.00 | 0.00 | 0.00 | 41 | 1010.8 |
| 20260905211035 | 105 | 133 | 0.0 | 0.9 | 0.00 | 0.00 | 0.00 | 39 | 1010.9 |
| 20260905210532 | 105 | 141 | 0.0 | 0.9 | 0.00 | 0.00 | 0.00 | 40 | 1010.9 |
| 20260905210031 | 105 | 122 | 0.9 | 0.9 | 0.00 | 0.00 | 0.00 | 42 | 1010.9 |
| 20260905205531 | 106 | 135 | 0.9 | 1.7 | 0.00 | 0.00 | 0.00 | 40 | 1011.0 |
| 20260905205030 | 106 | 169 | 0.9 | 0.9 | 0.00 | 0.00 | 0.00 | 38 | 1011.1 |
| 20260905204525 | 105 | 149 | 0.0 | 0.0 | 0.00 | 0.00 | 0.00 | 41 | 1011.0 |
| 20260905204020 | 105 | 163 | 0.0 | 0.9 | 0.00 | 0.00 | 0.00 | 41 | 1011.2 |
| 20260905203515 | 105 | 154 | 0.9 | 0.9 | 0.00 | 0.00 | 0.00 | 41 | 1011.3 |
| 20260905203010 | 104 | 169 | 0.9 | 0.9 | 0.00 | 0.00 | 0.00 | 39 | 1011.4 |
| 20260905202511 | 103 | 155 | 0.9 | 0.9 | 0.00 | 0.00 | 0.00 | 41 | 1011.3 |
| 20260905202006 | 103 | 134 | 0.0 | 0.0 | 0.00 | 0.00 | 0.00 | 43 | 1011.5 |
| 20260905201501 | 104 | 41 | 2.6 | 2.6 | 0.00 | 0.00 | 0.00 | 43 | 1011.6 |
| 20260905201001 | 105 | 308 | 0.9 | 1.7 | 0.00 | 0.00 | 0.00 | 41 | 1011.6 |
| 20260905200457 | 105 | 117 | 0.9 | 0.9 | 0.00 | 0.00 | 0.00 | 41 | 1011.8 |
| 20260905195955 | 103 | 143 | 0.9 | 0.9 | 0.00 | 0.00 | 0.00 | 42 | 1011.6 |
| 20260905195450 | 102 | 5 | 0.9 | 1.7 | 0.00 | 0.00 | 0.00 | 45 | 1011.8 |
| 20260905194946 | 102 | 117 | 0.9 | 1.7 | 0.00 | 0.00 | 0.00 | 45 | 1012.1 |
| 20260905194445 | 101 | 142 | 0.0 | 0.0 | 0.00 | 0.00 | 0.00 | 46 | 1012.1 |
| 20260905193940 | 100 | 156 | 1.7 | 1.7 | 0.00 | 0.00 | 0.00 | 46 | 1012.3 |
| 20260905193440 | 101 | 136 | 0.9 | 1.7 | 0.00 | 0.00 | 0.00 | 46 | 1012.4 |
| 20260905192935 | 102 | 134 | 1.7 | 2.6 | 0.00 | 0.00 | 0.00 | 44 | 1012.4 |
| 20260905192430 | 102 | 150 | 0.9 | 0.9 | 0.00 | 0.00 | 0.00 | 47 | 1012.3 |
| 20260905191926 | 101 | 115 | 0.0 | 0.9 | 0.00 | 0.00 | 0.00 | 46 | 1012.5 |
| 20260905191420 | 101 | 137 | 0.9 | 0.9 | 0.00 | 0.00 | 0.00 | 47 | 1012.7 |
| 20260905190920 | 101 | 42 | 1.7 | 1.7 | 0.00 | 0.00 | 0.00 | 47 | 1012.6 |
| 20260905190417 | 101 | 201 | 1.7 | 1.7 | 0.00 | 0.00 | 0.00 | 47 | 1012.5 |
| 20260905185916 | 101 | 33 | 1.7 | 2.6 | 0.00 | 0.00 | 0.00 | 44 | 1012.7 |
| 20260905185412 | 101 | 126 | 0.9 | 0.9 | 0.00 | 0.00 | 0.00 | 47 | 1012.7 |
| 20260905184911 | 102 | 129 | 1.7 | 2.6 | 0.00 | 0.00 | 0.00 | 44 | 1012.9 |
| 20260905184410 | 104 | 142 | 2.6 | 2.6 | 0.00 | 0.00 | 0.00 | 44 | 1012.8 |
| 20260905183909 | 104 | 131 | 0.9 | 0.9 | 0.00 | 0.00 | 0.00 | 42 | 1012.9 |
| 20260905183404 | 103 | 173 | 0.9 | 0.9 | 0.00 | 0.00 | 0.00 | 43 | 1013.0 |
| 20260905182859 | 103 | 150 | 0.0 | 0.9 | 0.00 | 0.00 | 0.00 | 47 | 1013.1 |
| 20260905182358 | 102 | 135 | 0.9 | 0.9 | 0.00 | 0.00 | 0.00 | 44 | 1013.0 |
| 20260905181854 | 102 | 184 | 1.7 | 1.7 | 0.00 | 0.00 | 0.00 | 44 | 1013.1 |
| 20260905181354 | 102 | 198 | 0.9 | 0.9 | 0.00 | 0.00 | 0.00 | 46 | 1013.2 |
| 20260905180853 | 101 | 89 | 0.9 | 1.7 | 0.00 | 0.00 | 0.00 | 46 | 1013.4 |
| 20260905180349 | 101 | 43 | 2.6 | 3.5 | 0.00 | 0.00 | 0.00 | 44 | 1013.3 |
| 20260905175843 | 101 | 146 | 0.9 | 0.9 | 0.00 | 0.00 | 0.00 | 44 | 1013.3 |
| 20260905175343 | 100 | 143 | 0.9 | 1.7 | 0.00 | 0.00 | 0.00 | 47 | 1013.5 |
| 20260905174838 | 99 | 115 | 1.7 | 1.7 | 0.00 | 0.00 | 0.00 | 47 | 1013.4 |
| 20260905174334 | 100 | 88 | 2.6 | 2.6 | 0.00 | 0.00 | 0.00 | 46 | 1013.6 |
| 20260905173830 | 99 | 80 | 0.9 | 1.7 | 0.00 | 0.00 | 0.00 | 50 | 1013.6 |
| 20260905173326 | 99 | 142 | 0.0 | 0.0 | 0.00 | 0.00 | 0.00 | 48 | 1013.7 |
| 20260905172826 | 100 | 142 | 0.9 | 1.7 | 0.00 | 0.00 | 0.00 | 50 | 1013.5 |
| 20260905172324 | 99 | 108 | 0.9 | 1.7 | 0.00 | 0.00 | 0.00 | 49 | 1013.5 |
| 20260905171820 | 99 | 273 | 1.7 | 2.6 | 0.00 | 0.00 | 0.00 | 50 | 1013.6 |
| 20260905171317 | 100 | 157 | 0.9 | 1.7 | 0.00 | 0.00 | 0.00 | 49 | 1013.8 |
| 20260905170813 | 100 | 75 | 1.7 | 2.6 | 0.00 | 0.00 | 0.00 | 50 | 1013.8 |
| 20260905170308 | 100 | 142 | 0.9 | 0.9 | 0.00 | 0.00 | 0.00 | 49 | 1013.6 |
| 20260905165807 | 101 | 130 | 0.9 | 0.9 | 0.00 | 0.00 | 0.00 | 49 | 1014.0 |
| 20260905165306 | 100 | 137 | 0.9 | 0.9 | 0.00 | 0.00 | 0.00 | 50 | 1013.9 |
| 20260905164803 | 98 | 133 | 0.9 | 0.9 | 0.00 | 0.00 | 0.00 | 51 | 1014.0 |
| 20260905164258 | 99 | 164 | 0.9 | 1.7 | 0.00 | 0.00 | 0.00 | 50 | 1014.1 |
| 20260905163753 | 100 | 315 | 0.9 | 1.7 | 0.00 | 0.00 | 0.00 | 50 | 1014.2 |
| 20260905163250 | 100 | 124 | 1.7 | 1.7 | 0.00 | 0.00 | 0.00 | 51 | 1014.4 |
| 20260905162745 | 99 | 97 | 0.9 | 0.9 | 0.00 | 0.00 | 0.00 | 50 | 1014.3 |
| 20260905162245 | 100 | 129 | 1.7 | 1.7 | 0.00 | 0.00 | 0.00 | 50 | 1014.3 |
| 20260905161740 | 100 | 135 | 0.0 | 0.9 | 0.00 | 0.00 | 0.00 | 51 | 1014.4 |
| 20260905161238 | 100 | 164 | 0.0 | 0.9 | 0.00 | 0.00 | 0.00 | 53 | 1014.6 |
| 20260905160737 | 98 | 118 | 0.9 | 0.9 | 0.00 | 0.00 | 0.00 | 53 | 1014.4 |
| 20260905160237 | 98 | 293 | 0.9 | 0.9 | 0.00 | 0.00 | 0.00 | 53 | 1014.5 |
| 20260905155732 | 99 | 143 | 0.0 | 0.0 | 0.00 | 0.00 | 0.00 | 55 | 1014.6 |
| 20260905155230 | 99 | 147 | 0.9 | 0.9 | 0.00 | 0.00 | 0.00 | 53 | 1014.6 |
| 20260905154720 | 100 | 190 | 1.7 | 2.6 | 0.00 | 0.00 | 0.00 | 53 | 1014.6 |
| 20260905154215 | 99 | 127 | 0.9 | 0.9 | 0.00 | 0.00 | 0.00 | 53 | 1014.7 |
| 20260905153711 | 100 | 132 | 0.9 | 0.9 | 0.00 | 0.00 | 0.00 | 54 | 1014.7 |
| 20260905153207 | 101 | 105 | 0.0 | 0.0 | 0.00 | 0.00 | 0.00 | 51 | 1014.7 |
| 20260905152701 | 100 | 143 | 0.0 | 0.9 | 0.00 | 0.00 | 0.00 | 52 | 1014.6 |
| 20260905152155 | 99 | 193 | 1.7 | 2.6 | 0.00 | 0.00 | 0.00 | 53 | 1014.7 |
| 20260905151650 | 99 | 141 | 0.0 | 0.0 | 0.00 | 0.00 | 0.00 | 55 | 1014.8 |
| 20260905151146 | 99 | 142 | 0.9 | 0.9 | 0.00 | 0.00 | 0.00 | 54 | 1014.8 |
| 20260905150641 | 99 | 137 | 0.9 | 0.9 | 0.00 | 0.00 | 0.00 | 54 | 1014.8 |
| 20260905150139 | 98 | 155 | 0.9 | 0.9 | 0.00 | 0.00 | 0.00 | 56 | 1014.7 |
| 20260905145638 | 99 | 144 | 0.9 | 0.9 | 0.00 | 0.00 | 0.00 | 55 | 1014.7 |
| 20260905145137 | 98 | 138 | 0.0 | 0.0 | 0.00 | 0.00 | 0.00 | 56 | 1014.4 |
| 20260905144632 | 96 | 143 | 0.9 | 0.9 | 0.00 | 0.00 | 0.00 | 58 | 1014.6 |
| 20260905144131 | 93 | 138 | 0.0 | 0.0 | 0.00 | 0.00 | 0.00 | 64 | 1014.7 |
| 20260905143626 | 91 | 135 | 0.0 | 0.0 | 0.00 | 0.00 | 0.00 | 67 | 1014.7 |
| 20260905143125 | 87 | 134 | 0.0 | 0.0 | 0.00 | 0.00 | 0.00 | 73 | 1014.5 |
| 20260905142624 | 84 | 135 | 0.0 | 0.0 | 0.00 | 0.00 | 0.00 | 78 | 1014.8 |
| 20260905142119 | 83 | 130 | 0.0 | 0.0 | 0.00 | 0.00 | 0.00 | 79 | 1014.7 |
| 20260905141618 | 83 | 143 | 0.0 | 0.9 | 0.00 | 0.00 | 0.00 | 80 | 1014.8 |
| 20260905141115 | 82 | 136 | 0.0 | 0.9 | 0.00 | 0.00 | 0.00 | 80 | 1015.0 |
| 20260905140616 | 82 | 148 | 0.9 | 0.9 | 0.00 | 0.00 | 0.00 | 81 | 1014.9 |
| 20260905140114 | 82 | 137 | 0.0 | 0.0 | 0.00 | 0.00 | 0.00 | 81 | 1014.8 |
| 20260905135610 | 81 | 134 | 0.0 | 0.0 | 0.00 | 0.00 | 0.00 | 83 | 1015.0 |
| 20260905135105 | 81 | 145 | 0.0 | 0.9 | 0.00 | 0.00 | 0.00 | 84 | 1014.9 |
| 20260905134600 | 81 | 138 | 0.9 | 0.9 | 0.00 | 0.00 | 0.00 | 84 | 1014.9 |
| 20260905134058 | 81 | 119 | 0.9 | 0.9 | 0.00 | 0.00 | 0.00 | 84 | 1015.0 |
| 20260905133554 | 81 | 133 | 0.0 | 0.0 | 0.00 | 0.00 | 0.00 | 85 | 1015.0 |
| 20260905133049 | 81 | 138 | 0.0 | 0.0 | 0.00 | 0.00 | 0.00 | 86 | 1014.9 |
| 20260905132549 | 80 | 138 | 0.0 | 0.0 | 0.00 | 0.00 | 0.00 | 86 | 1014.9 |
| 20260905132048 | 80 | 138 | 0.0 | 0.0 | 0.00 | 0.00 | 0.00 | 88 | 1015.0 |
| 20260905131544 | 79 | 138 | 0.0 | 0.0 | 0.00 | 0.00 | 0.00 | 91 | 1015.2 |
| 20260905131039 | 78 | 139 | 0.0 | 0.0 | 0.00 | 0.00 | 0.00 | 94 | 1015.0 |
| 20260905130538 | 77 | 138 | 0.0 | 0.0 | 0.00 | 0.00 | 0.00 | 95 | 1015.0 |
| 20260905130034 | 77 | 139 | 0.0 | 0.0 | 0.00 | 0.00 | 0.00 | 96 | 1015.0 |
| 20260905125533 | 77 | 139 | 0.0 | 0.0 | 0.00 | 0.00 | 0.00 | 97 | 1014.9 |
| 20260905125029 | 77 | 139 | 0.0 | 0.0 | 0.00 | 0.00 | 0.00 | 98 | 1014.9 |
| 20260905124525 | 77 | 139 | 0.0 | 0.0 | 0.00 | 0.00 | 0.00 | 99 | 1014.9 |
| 20260905124021 | 77 | 139 | 0.0 | 0.0 | 0.00 | 0.00 | 0.00 | 99 | 1014.8 |
| 20260905123516 | 75 | 139 | 0.0 | 0.0 | 0.00 | 0.00 | 0.00 | 99 | 1015.0 |
| 20260905123013 | 74 | 140 | 0.0 | 0.0 | 0.00 | 0.00 | 0.00 | 99 | 1014.8 |
| 20260905122507 | 73 | 140 | 0.0 | 0.0 | 0.00 | 0.00 | 0.00 | 99 | 1014.9 |
| 20260905122003 | 73 | 140 | 0.0 | 0.0 | 0.00 | 0.00 | 0.00 | 99 | 1014.8 |
| 20260905121457 | 73 | 142 | 0.0 | 0.0 | 0.00 | 0.00 | 0.00 | 98 | 1014.7 |
| 20260905120956 | 73 | 133 | 0.0 | 0.0 | 0.00 | 0.00 | 0.00 | 98 | 1014.6 |
| 20260905120451 | 72 | 137 | 0.0 | 0.0 | 0.00 | 0.00 | 0.00 | 98 | 1014.7 |
| 20260905115946 | 72 | 137 | 0.0 | 0.0 | 0.00 | 0.00 | 0.00 | 98 | 1014.7 |
| 20260905115445 | 72 | 137 | 0.0 | 0.0 | 0.00 | 0.00 | 0.00 | 98 | 1014.6 |
| 20260905114941 | 72 | 138 | 0.0 | 0.0 | 0.00 | 0.00 | 0.00 | 98 | 1014.6 |
| 20260905114440 | 72 | 138 | 0.0 | 0.0 | 0.00 | 0.00 | 0.00 | 98 | 1014.4 |
| 20260905113939 | 72 | 138 | 0.0 | 0.0 | 0.00 | 0.00 | 0.00 | 98 | 1014.3 |
| 20260905113434 | 72 | 131 | 0.0 | 0.0 | 0.00 | 0.00 | 0.00 | 98 | 1014.1 |
| 20260905112930 | 71 | 140 | 0.0 | 0.0 | 0.00 | 0.00 | 0.00 | 98 | 1014.3 |
| 20260905112425 | 72 | 140 | 0.0 | 0.0 | 0.00 | 0.00 | 0.00 | 98 | 1014.3 |
| 20260905111920 | 72 | 140 | 0.0 | 0.0 | 0.00 | 0.00 | 0.00 | 98 | 1014.3 |
| 20260905111419 | 72 | 140 | 0.0 | 0.0 | 0.00 | 0.00 | 0.00 | 98 | 1014.2 |
| 20260905110914 | 72 | 140 | 0.0 | 0.0 | 0.00 | 0.00 | 0.00 | 98 | 1014.0 |
| 20260905110408 | 72 | 132 | 0.0 | 0.0 | 0.00 | 0.00 | 0.00 | 98 | 1014.0 |
| 20260905105903 | 72 | 137 | 0.0 | 0.0 | 0.00 | 0.00 | 0.00 | 98 | 1013.9 |
| 20260905105403 | 72 | 133 | 0.0 | 0.0 | 0.00 | 0.00 | 0.00 | 98 | 1014.0 |
| 20260905104901 | 71 | 136 | 0.0 | 0.0 | 0.00 | 0.00 | 0.00 | 98 | 1014.0 |
| 20260905104358 | 71 | 136 | 0.0 | 0.0 | 0.00 | 0.00 | 0.00 | 98 | 1013.9 |
| 20260905103858 | 71 | 134 | 0.0 | 0.0 | 0.00 | 0.00 | 0.00 | 98 | 1013.8 |
| 20260905103354 | 72 | 134 | 0.0 | 0.0 | 0.00 | 0.00 | 0.00 | 98 | 1013.7 |
| 20260905102849 | 72 | 134 | 0.0 | 0.0 | 0.00 | 0.00 | 0.00 | 98 | 1013.8 |
| 20260905102346 | 72 | 136 | 0.0 | 0.0 | 0.00 | 0.00 | 0.00 | 98 | 1013.7 |
| 20260905101846 | 72 | 135 | 0.0 | 0.0 | 0.00 | 0.00 | 0.00 | 97 | 1013.5 |
| 20260905101345 | 72 | 135 | 0.0 | 0.0 | 0.00 | 0.00 | 0.00 | 97 | 1013.6 |
| 20260905100845 | 72 | 138 | 0.0 | 0.0 | 0.00 | 0.00 | 0.00 | 97 | 1013.7 |
| 20260905100341 | 72 | 137 | 0.0 | 0.0 | 0.00 | 0.00 | 0.00 | 97 | 1013.6 |
| 20260905095840 | 72 | 137 | 0.0 | 0.0 | 0.00 | 0.00 | 0.00 | 97 | 1013.6 |
| 20260905095340 | 72 | 137 | 0.0 | 0.0 | 0.00 | 0.00 | 0.00 | 97 | 1013.7 |
| 20260905094835 | 72 | 137 | 0.0 | 0.0 | 0.00 | 0.00 | 0.00 | 97 | 1013.8 |
| 20260905094331 | 72 | 137 | 0.0 | 0.0 | 0.00 | 0.00 | 0.00 | 97 | 1013.7 |
| 20260905093829 | 72 | 136 | 0.0 | 0.0 | 0.00 | 0.00 | 0.00 | 97 | 1013.5 |
| 20260905093325 | 72 | 136 | 0.0 | 0.0 | 0.00 | 0.00 | 0.00 | 97 | 1013.7 |
| 20260905092821 | 72 | 136 | 0.0 | 0.0 | 0.00 | 0.00 | 0.00 | 97 | 1013.7 |
| 20260905092321 | 72 | 136 | 0.0 | 0.0 | 0.00 | 0.00 | 0.00 | 97 | 1013.8 |
| 20260905091816 | 72 | 136 | 0.0 | 0.0 | 0.00 | 0.00 | 0.00 | 97 | 1013.6 |
| 20260905091316 | 72 | 136 | 0.0 | 0.0 | 0.00 | 0.00 | 0.00 | 97 | 1013.7 |
| 20260905090814 | 72 | 136 | 0.0 | 0.0 | 0.00 | 0.00 | 0.00 | 96 | 1013.4 |
| 20260905090311 | 72 | 136 | 0.0 | 0.0 | 0.00 | 0.00 | 0.00 | 96 | 1013.4 |
| 20260905085810 | 72 | 136 | 0.0 | 0.0 | 0.00 | 0.00 | 0.00 | 96 | 1013.3 |
| 20260905085310 | 73 | 136 | 0.0 | 0.0 | 0.00 | 0.00 | 0.00 | 96 | 1013.3 |
| 20260905084806 | 73 | 136 | 0.0 | 0.0 | 0.00 | 0.00 | 0.00 | 96 | 1013.4 |
| 20260905084305 | 73 | 134 | 0.0 | 0.0 | 0.00 | 0.00 | 0.00 | 96 | 1013.4 |
| 20260905083800 | 73 | 134 | 0.0 | 0.0 | 0.00 | 0.00 | 0.00 | 96 | 1013.4 |
| 20260905083256 | 73 | 137 | 0.0 | 0.0 | 0.00 | 0.00 | 0.00 | 96 | 1013.2 |
| 20260905082751 | 73 | 137 | 0.0 | 0.0 | 0.00 | 0.00 | 0.00 | 95 | 1013.3 |